Time;durP1;ratioP1;P1;durP2;ratioP2;P2;SDS_P1;SDS_P2;PMS_P1;PMS_P2;Temp;Humidity;BMP_temperature;BMP_pressure;BME280_temperature;BME280_humidity;BME280_pressure;Samples;Min_cycle;Max_cycle;Signal;HPM_P1;HPM_P2
2021/12/23 00:09:00;;;;;;;133.10;49.53;;;;;;;2.78;100.00;101512.84;6278800;22;20003;-83
2021/12/23 00:12:12;;;;;;;131.13;49.28;;;;;;;2.69;100.00;101514.19;6305206;22;20265;-86
2021/12/23 00:41:22;;;;;;;169.48;53.03;;;;;;;2.88;100.00;101504.38;6244101;22;20079;-87
2021/12/23 00:58:22;;;;;;;171.93;54.22;;;;;;;2.98;100.00;101495.03;6296898;22;20023;-85
2021/12/23 01:20:52;;;;;;;138.47;39.37;;;;;;;3.00;100.00;101481.84;6265512;22;20024;-88
2021/12/23 01:26:13;;;;;;;229.55;54.00;;;;;;;2.95;100.00;101473.44;6265805;22;20054;-87
2021/12/23 01:34:08;;;;;;;159.07;35.57;;;;;;;2.90;100.00;101470.25;6271643;22;20000;-87
2021/12/23 01:37:05;;;;;;;187.90;47.45;;;;;;;2.92;100.00;101470.97;6298580;22;20238;-87
2021/12/23 01:50:46;;;;;;;183.48;50.15;;;;;;;2.87;100.00;101470.41;6246047;22;20019;-85
2021/12/23 01:53:50;;;;;;;179.75;47.10;;;;;;;2.93;100.00;101464.81;6191451;23;20026;-85
2021/12/23 02:10:16;;;;;;;216.15;51.60;;;;;;;2.68;100.00;101454.13;6212931;22;20261;-86
2021/12/23 02:13:14;;;;;;;202.02;47.92;;;;;;;2.60;100.00;101452.78;6186432;22;20039;-85
2021/12/23 02:16:22;;;;;;;226.35;50.30;;;;;;;2.59;100.00;101452.84;6209002;22;20025;-86
2021/12/23 02:28:43;;;;;;;213.52;49.97;;;;;;;2.46;100.00;101430.94;6244618;22;20497;-85
2021/12/23 02:35:04;;;;;;;228.10;49.53;;;;;;;2.48;100.00;101419.47;6268602;22;20003;-88
2021/12/23 03:00:57;;;;;;;160.20;43.50;;;;;;;2.63;100.00;101415.13;6282747;22;20318;-86
2021/12/23 03:03:57;;;;;;;146.77;41.60;;;;;;;2.68;100.00;101407.00;6283380;22;20238;-85
2021/12/23 03:06:33;;;;;;;135.05;40.40;;;;;;;2.66;100.00;101409.69;6261288;22;20015;-84
2021/12/23 03:41:15;;;;;;;111.38;36.72;;;;;;;2.73;100.00;101394.47;6213074;23;20035;-85
2021/12/23 03:43:54;;;;;;;119.20;35.92;;;;;;;2.75;100.00;101392.63;6212651;23;20001;-86
2021/12/23 03:46:41;;;;;;;129.18;38.92;;;;;;;2.70;100.00;101392.03;6245614;22;19997;-86
2021/12/23 03:50:18;;;;;;;115.20;36.38;;;;;;;2.71;100.00;101391.13;6240333;22;20010;-86
2021/12/23 03:53:10;;;;;;;119.30;36.47;;;;;;;2.72;100.00;101393.63;6304389;22;20027;-85
2021/12/23 04:04:22;;;;;;;113.38;36.83;;;;;;;2.71;100.00;101391.13;6234328;22;20012;-85
2021/12/23 04:07:46;;;;;;;115.60;34.58;;;;;;;2.57;100.00;101390.16;6209101;22;20055;-87
2021/12/23 04:16:11;;;;;;;110.63;36.63;;;;;;;2.60;100.00;101389.97;6234237;22;20016;-86
2021/12/23 04:19:31;;;;;;;;;;;;;;;;;;;;;
2021/12/23 04:44:26;;;;;;;126.13;39.42;;;;;;;2.38;100.00;101384.31;6228419;22;20015;-84
2021/12/23 04:47:35;;;;;;;116.88;37.42;;;;;;;2.32;100.00;101374.19;6287546;22;20037;-84
2021/12/23 04:50:28;;;;;;;116.50;36.67;;;;;;;2.28;100.00;101383.16;6240706;23;20027;-83
2021/12/23 05:07:13;;;;;;;85.67;30.90;;;;;;;2.42;100.00;101370.09;6240810;22;20235;-86
2021/12/23 05:10:31;;;;;;;88.45;31.25;;;;;;;2.45;100.00;101364.69;6122480;23;20281;-85
2021/12/23 05:13:13;;;;;;;88.63;32.75;;;;;;;2.65;100.00;101367.94;6067905;23;20038;-84
2021/12/23 05:16:35;;;;;;;98.30;34.03;;;;;;;2.50;100.00;101357.44;6094101;23;20038;-85
2021/12/23 05:19:42;;;;;;;;;;;;;;;2.43;100.00;101355.25;6122186;23;20033;-85
2021/12/23 05:23:38;;;;;;;111.03;35.35;;;;;;;2.43;100.00;101366.56;6152359;23;19939;-84
2021/12/23 05:39:52;;;;;;;83.63;29.30;;;;;;;2.15;100.00;101344.72;6304622;22;20014;-84
2021/12/23 05:42:30;;;;;;;77.57;29.15;;;;;;;2.14;100.00;101346.50;6240590;22;20001;-83
2021/12/23 05:49:06;;;;;;;78.75;29.25;;;;;;;2.08;100.00;101349.47;6243631;22;20015;-84
2021/12/23 05:52:31;;;;;;;83.50;30.35;;;;;;;2.16;100.00;101342.00;6195050;22;20019;-85
2021/12/23 05:56:12;;;;;;;82.20;30.48;;;;;;;2.31;100.00;101340.28;6209978;23;20008;-85
2021/12/23 07:14:01;;;;;;;109.43;35.50;;;;;;;2.67;100.00;101322.41;6254887;23;20024;-87
2021/12/23 07:16:26;;;;;;;106.15;35.92;;;;;;;2.65;100.00;101315.59;6204179;23;20020;-87
2021/12/23 07:18:52;;;;;;;116.40;35.20;;;;;;;2.55;100.00;101308.28;6206596;23;20038;-85
2021/12/23 07:21:18;;;;;;;112.93;36.28;;;;;;;2.75;100.00;101311.50;6235883;23;20008;-85
2021/12/23 07:23:43;;;;;;;113.45;36.50;;;;;;;2.69;100.00;101301.38;6261707;23;20012;-88
2021/12/23 07:26:09;;;;;;;123.30;37.03;;;;;;;2.80;100.00;101297.19;6262341;23;20015;-86
2021/12/23 07:28:35;;;;;;;110.63;34.10;;;;;;;2.74;100.00;101301.94;6269034;23;20008;-84
2021/12/23 07:31:00;;;;;;;107.80;35.17;;;;;;;2.62;100.00;101292.22;6243426;23;20013;-87
2021/12/23 07:33:26;;;;;;;106.90;34.35;;;;;;;2.58;100.00;101302.88;6251066;23;20051;-85
2021/12/23 07:35:51;;;;;;;83.63;29.92;;;;;;;2.65;100.00;101302.50;6251706;23;20053;-86
2021/12/23 07:38:18;;;;;;;82.65;28.98;;;;;;;2.76;100.00;101300.06;6253270;23;20087;-87
2021/12/23 07:40:44;;;;;;;75.88;28.88;;;;;;;2.71;100.00;101281.19;6252468;23;20019;-89
2021/12/23 07:43:31;;;;;;;76.25;27.48;;;;;;;2.54;100.00;101283.06;6227603;23;20008;-88
2021/12/23 07:46:01;;;;;;;71.07;28.10;;;;;;;2.57;100.00;101301.19;6256923;23;20015;-85
2021/12/23 07:48:27;;;;;;;73.65;26.67;;;;;;;2.63;100.00;101299.13;6206180;23;20022;-89
2021/12/23 07:50:54;;;;;;;74.45;27.60;;;;;;;2.69;100.00;101309.22;6253141;23;20043;-90
2021/12/23 07:53:20;;;;;;;83.60;31.83;;;;;;;2.48;100.00;101317.44;6247659;23;20020;-89
2021/12/23 07:55:46;;;;;;;81.45;31.63;;;;;;;2.50;100.00;101305.09;6249804;23;20087;-90
2021/12/23 07:58:11;;;;;;;93.35;30.65;;;;;;;2.40;100.00;101301.34;6223601;23;20409;-87
2021/12/23 08:00:37;;;;;;;87.80;31.45;;;;;;;2.40;100.00;101293.50;6250373;23;20016;-89
2021/12/23 08:03:03;;;;;;;87.85;31.65;;;;;;;2.58;100.00;101292.41;6223321;23;20034;-87
2021/12/23 08:05:30;;;;;;;100.85;33.67;;;;;;;2.52;100.00;101292.75;6253173;23;20012;-89
2021/12/23 08:07:57;;;;;;;91.95;31.40;;;;;;;2.39;100.00;101283.13;6238177;23;20043;-86
2021/12/23 08:10:25;;;;;;;94.13;31.60;;;;;;;2.42;100.00;101281.16;6251740;23;20083;-92
2021/12/23 08:12:51;;;;;;;96.13;31.75;;;;;;;2.63;100.00;101280.81;6225876;23;20069;-88
2021/12/23 08:15:17;;;;;;;103.45;33.70;;;;;;;2.81;100.00;101277.09;6264522;23;20490;-87
2021/12/23 08:17:42;;;;;;;101.45;34.22;;;;;;;2.59;100.00;101277.53;6239500;23;20016;-86
2021/12/23 08:20:12;;;;;;;99.60;32.83;;;;;;;2.66;100.00;101272.78;6259453;23;20447;-88
2021/12/23 08:22:38;;;;;;;97.95;35.33;;;;;;;2.44;100.00;101283.69;6238111;23;20016;-84
2021/12/23 08:25:04;;;;;;;102.30;33.80;;;;;;;2.42;100.00;101281.16;6235508;23;20015;-88
2021/12/23 08:27:34;;;;;;;102.82;32.05;;;;;;;2.46;100.00;101282.66;6224135;23;20031;-91
2021/12/23 08:30:01;;;;;;;81.35;29.38;;;;;;;2.60;100.00;101282.69;6251735;23;20008;-89
2021/12/23 08:32:29;;;;;;;102.25;31.30;;;;;;;2.76;100.00;101273.91;6250231;23;20070;-89
2021/12/23 08:34:55;;;;;;;89.63;31.95;;;;;;;2.79;100.00;101273.69;6221924;23;20016;-90
2021/12/23 08:37:21;;;;;;;99.47;33.28;;;;;;;2.62;100.00;101287.00;6223127;23;20016;-87
2021/12/23 08:39:48;;;;;;;100.90;31.98;;;;;;;2.47;100.00;101289.59;6250785;23;20084;-89
2021/12/23 08:42:14;;;;;;;98.88;33.40;;;;;;;2.50;100.00;101294.63;6224169;23;20024;-90
2021/12/23 08:44:40;;;;;;;99.70;32.70;;;;;;;2.34;100.00;101288.66;6249788;23;20036;-86
2021/12/23 08:47:11;;;;;;;95.78;33.47;;;;;;;2.52;100.00;101287.53;6223771;23;20078;-87
2021/12/23 08:49:38;;;;;;;96.43;32.65;;;;;;;2.37;100.00;101295.47;6223725;23;20070;-89
2021/12/23 08:52:04;;;;;;;108.03;35.20;;;;;;;2.50;100.00;101289.41;6249791;23;20339;-89
2021/12/23 08:54:33;;;;;;;96.85;32.58;;;;;;;2.44;100.00;101295.00;6224014;23;20431;-85
2021/12/23 08:56:59;;;;;;;100.97;33.28;;;;;;;2.63;100.00;101286.88;6249844;23;20443;-87
2021/12/23 08:59:24;;;;;;;106.80;34.60;;;;;;;2.40;100.00;101288.28;6249048;23;20004;-87
2021/12/23 09:01:51;;;;;;;108.35;34.38;;;;;;;2.38;100.00;101290.16;6250418;23;20012;-88
2021/12/23 09:04:18;;;;;;;115.50;36.42;;;;;;;2.34;100.00;101278.19;6252422;23;20008;-89
2021/12/23 09:06:47;;;;;;;108.32;35.92;;;;;;;2.38;100.00;101284.91;6253227;23;20343;-90
2021/12/23 09:09:16;;;;;;;104.38;34.20;;;;;;;2.48;100.00;101291.28;6250624;23;20038;-84
2021/12/23 09:11:42;;;;;;;100.05;34.08;;;;;;;2.40;100.00;101290.88;6223043;23;20086;-84
2021/12/23 09:14:13;;;;;;;96.43;32.25;;;;;;;2.54;100.00;101283.06;6252694;23;20067;-90
2021/12/23 09:16:41;;;;;;;88.50;31.08;;;;;;;2.60;100.00;101280.06;6222914;23;20443;-87
2021/12/23 09:19:08;;;;;;;80.88;30.02;;;;;;;2.71;100.00;101275.97;6252168;23;20058;-87
2021/12/23 09:21:40;;;;;;;83.78;29.85;;;;;;;2.63;100.00;101280.81;6251326;23;20020;-92
2021/12/23 09:24:10;;;;;;;74.68;28.63;;;;;;;2.63;100.00;101286.03;6261336;23;20112;-88
2021/12/23 09:26:46;;;;;;;76.68;30.20;;;;;;;2.71;100.00;101283.81;6229408;23;20028;-87
2021/12/23 09:32:39;;;;;;;82.70;31.55;;;;;;;2.75;100.00;101299.22;6255879;23;20066;-88
2021/12/23 09:34:52;;;;;;;90.10;30.85;;;;;;;2.74;100.00;101301.94;6233145;23;20062;-86
2021/12/23 09:37:23;;;;;;;97.18;33.75;;;;;;;2.72;100.00;101295.97;6257150;23;20035;-87
2021/12/23 09:39:53;;;;;;;69.97;24.25;;;;;;;2.83;100.00;101297.00;6259422;23;20027;-88
2021/12/23 09:42:27;;;;;;;107.50;35.30;;;;;;;3.01;100.00;101300.25;6259361;23;20008;-88
2021/12/23 09:44:59;;;;;;;94.75;35.13;;;;;;;2.95;100.00;101303.28;6232284;23;20019;-88
2021/12/23 09:47:31;;;;;;;59.80;21.23;;;;;;;2.92;100.00;101300.81;6252806;23;20015;-86
2021/12/23 09:49:58;;;;;;;64.95;24.05;;;;;;;2.80;100.00;101298.94;6253453;23;20015;-90
2021/12/23 09:52:29;;;;;;;80.40;28.85;;;;;;;2.85;100.00;101300.34;6224664;23;20020;-90
2021/12/23 09:54:56;;;;;;;72.25;28.60;;;;;;;2.84;100.00;101303.91;6227930;23;20016;-85
2021/12/23 09:57:27;;;;;;;69.88;28.60;;;;;;;3.09;100.00;101298.00;6202568;23;20012;-87
2021/12/23 09:59:54;;;;;;;65.38;26.10;;;;;;;3.12;100.00;101303.03;6231542;23;20012;-88
2021/12/23 10:02:25;;;;;;;68.90;26.48;;;;;;;3.25;100.00;101297.91;6232654;23;20008;-87
2021/12/23 10:04:51;;;;;;;70.53;27.02;;;;;;;3.22;100.00;101292.81;6260333;23;20042;-86
2021/12/23 10:07:18;;;;;;;69.10;26.95;;;;;;;3.11;100.00;101301.38;6257663;23;20067;-86
2021/12/23 10:37:18;;;;;;;80.47;31.00;;;;;;;3.39;100.00;101269.88;6239788;23;20031;-89
2021/12/23 10:40:05;;;;;;;79.70;29.40;;;;;;;3.57;100.00;101267.84;6234993;23;20018;-89
2021/12/23 10:42:34;;;;;;;86.43;29.50;;;;;;;3.94;100.00;101256.66;6259589;23;20016;-88
2021/12/23 10:45:13;;;;;;;86.13;31.17;;;;;;;3.72;100.00;101261.59;6260331;23;20055;-89
2021/12/23 10:50:48;;;;;;;74.07;29.10;;;;;;;3.92;100.00;101241.94;6255118;23;20011;-84
2021/12/23 10:53:45;;;;;;;70.85;27.98;;;;;;;3.94;100.00;101237.44;6255627;23;20012;-88
2021/12/23 10:59:23;;;;;;;69.82;27.15;;;;;;;4.11;100.00;101247.63;6256077;23;20074;-90
2021/12/23 11:02:20;;;;;;;69.43;28.08;;;;;;;3.89;100.00;101252.63;6231336;23;20008;-86
2021/12/23 11:05:22;;;;;;;65.53;26.75;;;;;;;4.05;100.00;101242.81;6247063;23;20129;-87
2021/12/23 11:29:03;;;;;;;67.03;28.20;;;;;;;4.38;100.00;101179.31;6262542;23;20064;-87
2021/12/23 11:32:24;;;;;;;60.15;25.77;;;;;;;4.61;100.00;101168.91;6250949;23;20044;-89
2021/12/23 11:42:29;;;;;;;63.97;28.88;;;;;;;4.79;100.00;101152.78;6256681;23;20017;-87
2021/12/23 11:44:57;;;;;;;59.90;26.02;;;;;;;4.74;100.00;101160.16;6258907;23;20008;-87
2021/12/23 11:47:26;;;;;;;65.68;27.88;;;;;;;4.72;100.00;101156.78;6263984;23;20008;-86
2021/12/23 11:49:52;;;;;;;66.93;30.05;;;;;;;4.65;100.00;101144.09;6258103;23;20007;-91
2021/12/23 11:52:23;;;;;;;67.13;30.02;;;;;;;4.26;100.00;101131.16;6234012;23;20028;-87
2021/12/23 11:54:49;;;;;;;78.93;32.47;;;;;;;4.09;100.00;101134.13;6260143;23;20012;-87
2021/12/23 11:57:31;;;;;;;70.28;30.65;;;;;;;4.40;100.00;101117.94;6260928;23;20008;-87
2021/12/23 12:00:19;;;;;;;69.68;28.25;;;;;;;4.86;100.00;101114.63;6258556;23;20015;-85
2021/12/23 12:03:26;;;;;;;74.82;29.17;;;;;;;4.51;100.00;101110.13;6287467;22;20083;-86
2021/12/23 12:05:51;;;;;;;69.57;28.58;;;;;;;4.62;100.00;101123.34;6238870;22;20066;-86
2021/12/23 12:08:24;;;;;;;70.78;29.80;;;;;;;4.69;100.00;101121.09;6264934;22;20015;-87
2021/12/23 12:10:50;;;;;;;;;;;;;;;4.54;100.00;101115.16;6264514;22;20016;-86
2021/12/23 12:13:17;;;;;;;64.28;28.70;;;;;;;4.63;100.00;101118.91;6241961;22;19930;-86
2021/12/23 12:15:48;;;;;;;65.82;29.42;;;;;;;4.85;100.00;101119.03;6284848;22;20011;-88
2021/12/23 12:18:16;;;;;;;68.30;28.70;;;;;;;4.88;100.00;101117.97;6286145;22;20098;-87
2021/12/23 12:20:49;;;;;;;67.05;28.55;;;;;;;4.82;100.00;101110.56;6293127;22;20008;-87
2021/12/23 12:23:39;;;;;;;74.78;29.65;;;;;;;4.80;100.00;101105.44;6266553;22;20035;-87
2021/12/23 12:26:08;;;;;;;77.90;28.25;;;;;;;5.05;100.00;101110.56;6289395;22;20093;-85
2021/12/23 12:28:38;;;;;;;66.50;28.27;;;;;;;5.38;100.00;101112.47;6289149;22;20067;-88
2021/12/23 12:31:14;;;;;;;71.72;29.88;;;;;;;5.25;100.00;101111.72;6293475;22;20016;-90
2021/12/23 12:33:59;;;;;;;72.93;30.92;;;;;;;5.17;100.00;101109.66;6261492;22;20020;-90
2021/12/23 12:36:29;;;;;;;65.65;28.95;;;;;;;5.09;100.00;101101.50;6256223;22;20012;-91
2021/12/23 12:39:03;;;;;;;74.00;31.00;;;;;;;5.03;100.00;101106.38;6229405;22;20011;-92
2021/12/23 12:41:35;;;;;;;71.10;29.13;;;;;;;5.01;100.00;101097.75;6257167;22;20676;-90
2021/12/23 12:44:21;;;;;;;73.03;29.73;;;;;;;5.17;100.00;101088.63;6234581;22;20019;-91
2021/12/23 12:47:21;;;;;;;68.57;29.83;;;;;;;5.47;100.00;101085.50;6280338;22;20081;-88
2021/12/23 12:50:09;;;;;;;72.10;30.30;;;;;;;5.41;100.00;101093.84;6286754;22;20076;-84
2021/12/23 12:52:38;;;;;;;85.43;32.00;;;;;;;5.32;100.00;101089.28;6287299;22;20008;-87
2021/12/23 12:55:23;;;;;;;79.68;32.05;;;;;;;5.14;100.00;101083.59;6293914;22;20012;-94
2021/12/23 12:57:53;;;;;;;80.97;31.95;;;;;;;5.22;100.00;101086.50;6252696;22;20020;-93
2021/12/23 13:00:39;;;;;;;79.25;30.70;;;;;;;5.28;100.00;101087.84;6257768;22;20393;-87
2021/12/23 13:03:11;;;;;;;80.55;31.75;;;;;;;5.15;100.00;101074.78;6277964;22;20038;-90
2021/12/23 13:05:48;;;;;;;80.05;30.38;;;;;;;5.41;100.00;101070.19;6253325;22;20011;-89
2021/12/23 13:08:29;;;;;;;87.55;31.63;;;;;;;5.24;100.00;101078.50;6279691;22;20023;-88
2021/12/23 13:11:29;;;;;;;73.32;29.85;;;;;;;5.21;100.00;101073.47;6292987;22;20015;-89
2021/12/23 13:14:20;;;;;;;72.30;29.23;;;;;;;5.02;100.00;101073.16;6272868;22;20049;-87
2021/12/23 13:24:58;;;;;;;72.70;30.13;;;;;;;5.08;100.00;101072.72;6032804;23;20060;-87
2021/12/23 14:03:55;;;;;;;81.67;31.70;;;;;;;4.57;100.00;101043.25;6298136;22;20258;-88
2021/12/23 14:06:51;;;;;;;75.72;28.90;;;;;;;4.67;100.00;101033.75;6189091;23;20000;-87
2021/12/23 14:13:25;;;;;;;75.28;30.40;;;;;;;4.55;100.00;101034.63;6179727;23;20017;-87
2021/12/23 14:25:10;;;;;;;82.93;31.20;;;;;;;4.64;100.00;101023.44;6254863;22;20016;-87
2021/12/23 14:27:43;;;;;;;79.53;29.85;;;;;;;4.61;100.00;101015.78;6298416;22;20046;-87
2021/12/23 14:31:04;;;;;;;78.38;31.58;;;;;;;4.58;100.00;101031.78;6276760;22;20011;-88
2021/12/23 14:36:59;;;;;;;80.45;31.45;;;;;;;4.84;100.00;101017.56;6234352;22;19916;-85
2021/12/23 14:42:32;;;;;;;85.93;31.00;;;;;;;5.14;100.00;100996.91;6301271;22;20024;-84
2021/12/23 14:45:13;;;;;;;75.65;31.30;;;;;;;5.01;100.00;101003.19;6302304;22;20234;-87
2021/12/23 14:48:21;;;;;;;83.57;31.23;;;;;;;4.85;100.00;100997.41;6261426;22;20043;-86
2021/12/23 14:51:36;;;;;;;75.15;30.10;;;;;;;4.77;100.00;100997.16;6206664;23;20016;-84
2021/12/23 14:54:14;;;;;;;85.88;31.85;;;;;;;4.71;100.00;101005.50;6095748;23;20018;-83
2021/12/23 15:00:08;;;;;;;76.82;29.40;;;;;;;5.18;100.00;100989.63;6292031;22;20020;-89
2021/12/23 15:20:41;;;;;;;81.33;33.17;;;;;;;4.52;100.00;100993.69;6241999;22;20012;-85
2021/12/23 16:27:21;;;;;;;;;;;;;;;;;;;;;
2021/12/23 16:43:27;;;;;;;85.88;32.67;;;;;;;4.45;100.00;100979.34;6264681;22;20405;-86
2021/12/23 16:45:53;;;;;;;85.35;34.53;;;;;;;4.60;100.00;100978.25;6263776;22;20020;-89
2021/12/23 16:51:05;;;;;;;83.33;33.37;;;;;;;4.48;100.00;100980.91;6263002;22;20034;-86
2021/12/23 16:53:58;;;;;;;80.50;32.17;;;;;;;4.50;100.00;100977.22;6270347;22;20020;-87
2021/12/23 17:23:02;;;;;;;86.28;36.63;;;;;;;4.63;100.00;100980.63;6234176;23;20021;-88
2021/12/23 17:26:30;;;;;;;;;;;;;;;;;;;;;
2021/12/23 17:29:45;;;;;;;;;;;;;;;;;;;;;
2021/12/23 17:32:45;;;;;;;87.28;35.92;;;;;;;4.61;100.00;100969.38;6190086;23;20020;-87
2021/12/23 17:35:22;;;;;;;85.53;36.22;;;;;;;4.37;100.00;100973.00;6210885;23;20017;-90
2021/12/23 17:52:59;;;;;;;88.75;36.55;;;;;;;4.31;100.00;100950.63;6305256;22;20249;-88
2021/12/23 18:33:26;;;;;;;98.03;38.93;;;;;;;3.79;100.00;100942.22;6183715;23;20320;-80
2021/12/23 18:36:08;;;;;;;98.10;39.83;;;;;;;3.77;100.00;100954.59;6148741;23;20022;-81
2021/12/23 18:38:53;;;;;;;96.80;38.65;;;;;;;3.82;100.00;100950.69;6155131;23;20109;-84
2021/12/23 18:42:05;;;;;;;93.05;39.20;;;;;;;3.78;100.00;100944.00;6158501;23;20025;-89
2021/12/23 18:45:42;;;;;;;99.05;38.60;;;;;;;3.81;100.00;100940.34;6104508;23;20026;-84
2021/12/23 18:51:00;;;;;;;105.00;41.05;;;;;;;3.67;100.00;100927.38;6239252;22;20024;-85
2021/12/23 18:54:06;;;;;;;105.18;41.72;;;;;;;3.57;100.00;100933.25;6243884;22;20051;-84
2021/12/23 18:57:09;;;;;;;99.75;40.17;;;;;;;3.59;100.00;100923.50;6189248;23;20005;-86
2021/12/23 19:00:07;;;;;;;103.32;42.00;;;;;;;3.57;100.00;100930.66;6186140;22;20009;-85
2021/12/23 19:06:03;;;;;;;101.93;41.33;;;;;;;3.58;100.00;100932.28;6245527;22;20001;-84
2021/12/23 19:11:35;;;;;;;100.27;38.40;;;;;;;3.63;100.00;100924.97;6269655;22;20024;-87
2021/12/23 19:14:03;;;;;;;101.97;39.25;;;;;;;3.68;100.00;100916.75;6229504;22;20267;-89
2021/12/23 19:24:34;;;;;;;74.07;28.97;;;;;;;3.85;100.00;100911.16;6263192;22;20266;-85
2021/12/23 19:27:35;;;;;;;97.88;41.42;;;;;;;3.84;100.00;100919.16;6291560;22;20003;-81
2021/12/23 19:30:31;;;;;;;99.22;40.47;;;;;;;3.72;100.00;100920.84;6300801;22;20093;-82
2021/12/23 19:33:52;;;;;;;91.55;38.28;;;;;;;3.72;100.00;100914.75;6272852;22;20019;-85
2021/12/23 19:36:54;;;;;;;102.13;39.58;;;;;;;3.78;100.00;100916.97;6245871;22;20024;-86
2021/12/23 19:39:21;;;;;;;102.07;40.88;;;;;;;3.86;100.00;100918.09;6220705;23;20027;-83
2021/12/23 19:41:46;;;;;;;104.00;41.05;;;;;;;3.84;100.00;100913.91;6194168;23;20051;-86
2021/12/23 19:44:13;;;;;;;91.82;39.92;;;;;;;3.88;100.00;100912.75;6221267;23;20024;-85
2021/12/23 19:46:39;;;;;;;95.13;40.05;;;;;;;3.85;100.00;100920.81;6217389;23;20012;-85
2021/12/23 19:49:05;;;;;;;93.05;40.67;;;;;;;3.82;100.00;100910.53;6193809;23;20017;-86
2021/12/23 19:51:31;;;;;;;91.38;38.15;;;;;;;3.86;100.00;100918.09;6223207;23;20447;-88
2021/12/23 19:54:00;;;;;;;95.30;39.65;;;;;;;3.93;100.00;100910.63;6226642;23;20088;-87
2021/12/23 19:56:29;;;;;;;91.47;38.30;;;;;;;4.34;100.00;100913.69;6175245;23;20012;-87
2021/12/23 19:58:54;;;;;;;98.80;40.58;;;;;;;4.24;100.00;100910.09;6218227;23;20100;-84
2021/12/23 20:01:20;;;;;;;88.28;38.17;;;;;;;4.59;100.00;100908.31;6216258;23;20036;-84
2021/12/23 20:03:46;;;;;;;97.32;42.20;;;;;;;4.34;100.00;100908.44;6196570;23;20073;-86
2021/12/23 20:06:11;;;;;;;104.47;44.88;;;;;;;4.38;100.00;100920.38;6194500;23;20020;-87
2021/12/23 20:08:37;;;;;;;92.15;42.10;;;;;;;4.80;100.00;100908.50;6218856;23;20035;-84
2021/12/23 20:11:03;;;;;;;100.47;44.40;;;;;;;4.52;100.00;100908.88;6217607;23;20036;-85
2021/12/23 20:13:29;;;;;;;95.88;42.25;;;;;;;4.85;100.00;100914.22;6227890;22;20047;-87
2021/12/23 20:15:56;;;;;;;98.63;42.83;;;;;;;4.67;100.00;100911.19;6248896;23;20443;-88
2021/12/23 20:18:21;;;;;;;90.13;40.45;;;;;;;5.07;100.00;100919.50;6248209;23;20012;-87
2021/12/23 20:20:47;;;;;;;96.32;44.05;;;;;;;4.60;100.00;100915.25;6220780;23;20031;-86
2021/12/23 20:23:15;;;;;;;90.40;41.55;;;;;;;4.77;100.00;100915.75;6229363;23;20012;-85
2021/12/23 20:25:41;;;;;;;91.75;41.17;;;;;;;5.08;100.00;100909.84;6254437;23;20008;-84
2021/12/23 20:28:08;;;;;;;90.22;41.97;;;;;;;4.72;100.00;100917.88;6222848;23;20016;-85
2021/12/23 21:06:43;;;;;;;67.50;31.13;;;;;;;5.08;100.00;100902.78;6268570;22;20023;-87
2021/12/23 21:09:09;;;;;;;59.70;31.85;;;;;;;5.12;100.00;100908.66;6276796;22;20008;-89
2021/12/23 21:11:41;;;;;;;64.60;32.92;;;;;;;4.65;100.00;100899.97;6279048;22;20043;-87
2021/12/23 21:14:06;;;;;;;62.40;30.98;;;;;;;5.01;100.00;100903.38;6276509;22;20065;-86
2021/12/23 21:16:32;;;;;;;77.72;34.60;;;;;;;4.71;100.00;100895.22;6249846;22;20012;-86
2021/12/23 21:18:59;;;;;;;67.82;33.80;;;;;;;4.46;100.00;100898.84;6278996;22;20102;-84
2021/12/23 21:21:25;;;;;;;71.47;34.80;;;;;;;4.46;100.00;100891.81;6278835;22;20011;-85
2021/12/23 21:23:51;;;;;;;70.90;33.65;;;;;;;4.23;100.00;100894.44;6282162;22;20022;-85
2021/12/23 21:26:21;;;;;;;67.28;33.83;;;;;;;4.46;100.00;100890.97;6282635;22;20443;-86
2021/12/23 21:28:47;;;;;;;62.83;30.88;;;;;;;4.36;100.00;100896.06;6251618;22;20014;-83
2021/12/23 21:31:14;;;;;;;68.00;32.67;;;;;;;4.44;100.00;100888.44;6279233;22;20096;-86
2021/12/23 21:33:40;;;;;;;65.40;32.88;;;;;;;4.29;100.00;100888.75;6279578;22;20019;-86
2021/12/23 21:36:08;;;;;;;61.35;30.52;;;;;;;4.30;100.00;100886.03;6280320;22;20003;-83
2021/12/23 21:38:34;;;;;;;57.35;29.45;;;;;;;4.58;100.00;100887.41;6280305;22;20007;-86
2021/12/23 21:40:59;;;;;;;55.08;28.85;;;;;;;4.62;100.00;100881.81;6279413;22;20507;-87
2021/12/23 21:43:25;;;;;;;57.13;28.27;;;;;;;4.77;100.00;100881.63;6254518;22;20008;-85
2021/12/23 21:45:51;;;;;;;58.30;29.30;;;;;;;4.66;100.00;100883.28;6282876;22;20012;-85
2021/12/23 21:48:20;;;;;;;58.08;30.35;;;;;;;4.63;100.00;100886.13;6279652;22;20147;-87
2021/12/23 21:50:47;;;;;;;57.55;30.00;;;;;;;4.58;100.00;100890.88;6282829;22;20012;-85
2021/12/23 21:53:14;;;;;;;61.95;30.60;;;;;;;4.41;100.00;100879.97;6254651;22;20103;-85
2021/12/23 21:55:41;;;;;;;66.93;30.63;;;;;;;4.47;100.00;100883.00;6280356;22;20060;-88
2021/12/23 21:58:10;;;;;;;56.75;29.63;;;;;;;4.72;100.00;100878.50;6279856;22;20063;-85
2021/12/23 22:00:38;;;;;;;57.55;29.77;;;;;;;4.58;100.00;100875.13;6280206;22;20446;-87
2021/12/23 22:03:05;;;;;;;60.03;29.42;;;;;;;4.28;100.00;100866.06;6253947;22;20026;-85
2021/12/23 22:05:32;;;;;;;60.42;30.77;;;;;;;4.49;100.00;100874.97;6279400;22;20011;-84
2021/12/23 22:07:58;;;;;;;60.35;30.35;;;;;;;4.48;100.00;100879.38;6228002;22;20042;-87
2021/12/23 22:10:24;;;;;;;58.90;29.95;;;;;;;4.49;100.00;100885.47;6278737;22;20003;-84
2021/12/23 22:12:51;;;;;;;61.72;31.55;;;;;;;4.44;100.00;100872.69;6278486;22;20419;-84
2021/12/23 22:15:21;;;;;;;60.47;30.05;;;;;;;4.53;100.00;100882.53;6280701;22;20470;-84
2021/12/23 22:17:46;;;;;;;63.50;31.00;;;;;;;4.53;100.00;100885.16;6281546;22;20003;-86
2021/12/23 22:20:12;;;;;;;68.25;32.88;;;;;;;4.54;100.00;100873.69;6280933;22;20004;-86
2021/12/23 22:22:38;;;;;;;67.65;31.48;;;;;;;4.40;100.00;100870.44;6283620;22;20011;-87
2021/12/23 22:25:06;;;;;;;67.03;32.30;;;;;;;4.57;100.00;100862.13;6280833;22;20435;-85
2021/12/23 22:27:35;;;;;;;62.58;30.95;;;;;;;4.69;100.00;100863.81;6279765;22;20003;-85
2021/12/23 22:30:03;;;;;;;63.95;32.25;;;;;;;4.54;100.00;100850.06;6281114;22;20011;-84
2021/12/23 22:32:29;;;;;;;62.53;30.38;;;;;;;4.39;100.00;100843.34;6254616;22;20011;-83
2021/12/23 22:34:54;;;;;;;68.03;32.28;;;;;;;4.45;100.00;100856.00;6279443;22;20250;-86
2021/12/23 22:37:20;;;;;;;63.95;32.42;;;;;;;4.23;100.00;100858.56;6281083;22;20007;-84
2021/12/23 22:39:46;;;;;;;67.82;31.25;;;;;;;4.16;100.00;100846.84;6282797;22;20074;-88
2021/12/23 22:42:12;;;;;;;65.53;31.90;;;;;;;4.11;100.00;100844.53;6283324;22;20000;-86
2021/12/23 22:44:38;;;;;;;64.28;30.58;;;;;;;4.04;100.00;100847.75;6282529;22;20042;-88
2021/12/23 22:47:07;;;;;;;62.65;30.25;;;;;;;4.10;100.00;100852.53;6254623;22;20466;-87
2021/12/23 22:49:32;;;;;;;60.42;28.98;;;;;;;4.13;100.00;100840.03;6282618;22;20093;-86
2021/12/23 22:51:58;;;;;;;54.25;27.48;;;;;;;4.20;100.00;100845.66;6254817;22;20016;-84
2021/12/23 22:54:24;;;;;;;55.03;26.40;;;;;;;4.20;100.00;100837.81;6283781;22;20008;-84
2021/12/23 22:56:49;;;;;;;53.75;27.13;;;;;;;4.30;100.00;100836.16;6284770;22;20027;-88
2021/12/23 22:59:15;;;;;;;50.33;26.67;;;;;;;4.30;100.00;100833.53;6284436;22;20368;-84
2021/12/23 23:01:40;;;;;;;48.10;26.52;;;;;;;4.55;100.00;100835.16;6286396;22;20019;-87
2021/12/23 23:04:09;;;;;;;52.10;27.52;;;;;;;4.41;100.00;100836.19;6283560;22;20011;-89
2021/12/23 23:06:34;;;;;;;52.53;27.38;;;;;;;4.07;100.00;100822.16;6257052;22;20079;-85
2021/12/23 23:09:00;;;;;;;297.92;106.30;;;;;;;3.76;100.00;100816.63;6283825;22;20011;-83
2021/12/23 23:11:27;;;;;;;122.82;50.53;;;;;;;3.74;100.00;100819.38;6283601;22;20086;-85
2021/12/23 23:14:09;;;;;;;87.78;37.63;;;;;;;3.72;100.00;100816.00;6284424;22;20018;-89